Time;durP1;ratioP1;P1;durP2;ratioP2;P2;SDS_P1;SDS_P2;PMS_P1;PMS_P2;Temp;Humidity;BMP_temperature;BMP_pressure;BME280_temperature;BME280_humidity;BME280_pressure;Samples;Min_cycle;Max_cycle;Signal;HPM_P1;HPM_P2
2022/03/21 00:00:11;;;;;;;;;;;;;;;1.38;100.00;97077.75;1039706;28;19940;-69
2022/03/21 00:00:44;;;;;;;;;;;;;;;1.41;100.00;97064.47;1039243;28;19913;-70
2022/03/21 00:01:18;;;;;;;;;;;;;;;1.43;100.00;97067.69;1034721;28;19912;-70
2022/03/21 00:01:51;;;;;;;;;;;;;;;1.39;100.00;97064.63;1033603;28;19976;-70
2022/03/21 00:02:21;;;;;;;;;;;;;;;1.39;100.00;97069.81;1036201;28;19944;-69
2022/03/21 00:02:52;;;;;;;;;;;;;;;1.36;100.00;97069.34;1034963;28;19991;-70
2022/03/21 00:03:24;;;;;;;;;;;;;;;1.30;100.00;97072.63;1034281;28;19917;-70
2022/03/21 00:03:54;;;;;;;;;;;;;;;1.26;100.00;97071.34;1033202;28;19914;-70
2022/03/21 00:04:24;;;;;;;;;;;;;;;1.20;100.00;97074.63;1034879;28;19918;-70
2022/03/21 00:04:55;;;;;;;;;;;;;;;1.16;100.00;97069.78;1033048;28;20025;-70
2022/03/21 00:05:25;;;;;;;;;;;;;;;1.11;100.00;97071.28;1034919;28;19921;-72
2022/03/21 00:05:56;;;;;;;;;;;;;;;1.08;100.00;97074.22;1031019;28;19950;-70
2022/03/21 00:06:26;;;;;;;;;;;;;;;1.04;100.00;97073.75;1031007;28;20502;-70
2022/03/21 00:06:57;;;;;;;;;;;;;;;1.03;100.00;97069.53;1030971;28;19988;-69
2022/03/21 00:07:27;;;;;;;;;;;;;;;1.06;100.00;97071.78;1031023;28;20364;-69
2022/03/21 00:07:57;;;;;;;;;;;;;;;1.07;100.00;97070.78;1037423;28;19916;-69
2022/03/21 00:08:28;;;;;;;;;;;;;;;1.05;100.00;97069.38;1035849;28;20008;-70
2022/03/21 00:08:58;;;;;;;;;;;;;;;1.02;100.00;97072.28;1038797;28;19909;-69
2022/03/21 00:09:29;;;;;;;;;;;;;;;0.98;100.00;97064.06;1038635;28;19969;-69
2022/03/21 00:09:59;;;;;;;;;;;;;;;1.00;100.00;97069.84;1034886;28;19952;-70
2022/03/21 00:10:34;;;;;;;;;;;;;;;0.97;100.00;97070.19;1038354;28;19920;-70
2022/03/21 00:11:04;;;;;;;;;;;;;;;0.91;100.00;97070.91;1039005;28;19905;-70
2022/03/21 00:11:34;;;;;;;;;;;;;;;0.87;100.00;97077.34;1038833;28;19909;-69
2022/03/21 00:12:05;;;;;;;;;;;;;;;0.83;100.00;97068.31;1035390;28;19925;-70
2022/03/21 00:12:35;;;;;;;;;;;;;;;0.78;100.00;97075.78;1035368;28;19909;-69
2022/03/21 00:13:08;;;;;;;;;;;;;;;0.80;100.00;97072.03;1035091;28;19914;-69
2022/03/21 00:13:39;;;;;;;;;;;;;;;0.80;100.00;97079.00;1034710;28;20357;-70
2022/03/21 00:14:12;;;;;;;;;;;;;;;0.81;100.00;97070.28;1035493;28;19948;-70
2022/03/21 00:14:44;;;;;;;;;;;;;;;0.89;100.00;97078.00;1039780;28;20007;-70
2022/03/21 00:15:14;;;;;;;;;;;;;;;0.86;100.00;97068.00;1038412;28;20367;-68
2022/03/21 00:15:44;;;;;;;;;;;;;;;0.84;100.00;97080.25;1034112;28;20188;-70
2022/03/21 00:16:15;;;;;;;;;;;;;;;0.86;100.00;97073.16;1034756;28;19914;-71
2022/03/21 00:16:46;;;;;;;;;;;;;;;0.85;100.00;97072.38;1035783;28;19913;-70
2022/03/21 00:17:16;;;;;;;;;;;;;;;0.81;100.00;97081.44;1038386;28;19920;-70
2022/03/21 00:17:46;;;;;;;;;;;;;;;0.77;100.00;97079.31;1042641;28;19947;-69
2022/03/21 00:18:17;;;;;;;;;;;;;;;0.73;100.00;97081.44;1043253;28;19913;-70
2022/03/21 00:18:48;;;;;;;;;;;;;;;0.69;100.00;97080.97;1038823;28;19913;-70
2022/03/21 00:19:18;;;;;;;;;;;;;;;0.66;100.00;97081.31;1038280;28;19913;-69
2022/03/21 00:19:48;;;;;;;;;;;;;;;0.64;100.00;97080.69;1039170;28;19917;-70
2022/03/21 00:20:19;;;;;;;;;;;;;;;0.59;100.00;97082.94;1035144;28;19914;-69
2022/03/21 00:20:50;;;;;;;;;;;;;;;0.58;100.00;97088.28;1034672;28;20000;-70
2022/03/21 00:21:20;;;;;;;;;;;;;;;0.56;100.00;97080.69;1031134;28;20311;-70
2022/03/21 00:21:51;;;;;;;;;;;;;;;0.62;100.00;97082.63;1030852;28;19914;-70
2022/03/21 00:22:21;;;;;;;;;;;;;;;0.63;100.00;97084.22;1035307;28;20347;-69
2022/03/21 00:22:55;;;;;;;;;;;;;;;0.61;100.00;97081.00;1034734;28;19913;-70
2022/03/21 00:23:25;;;;;;;;;;;;;;;0.58;100.00;97083.94;1031263;28;19910;-70
2022/03/21 00:23:55;;;;;;;;;;;;;;;0.54;100.00;97087.81;1034928;28;20287;-69
2022/03/21 00:24:28;;;;;;;;;;;;;;;0.50;100.00;97077.97;1035049;28;20413;-70
2022/03/21 00:24:59;;;;;;;;;;;;;;;0.48;100.00;97083.31;1040186;28;19909;-69
2022/03/21 00:25:29;;;;;;;;;;;;;;;0.44;100.00;97087.19;1043312;28;20396;-70
2022/03/21 00:25:59;;;;;;;;;;;;;;;0.45;100.00;97081.06;1038600;28;19909;-70
2022/03/21 00:26:30;;;;;;;;;;;;;;;0.43;100.00;97080.41;1039179;28;19913;-69
2022/03/21 00:27:00;;;;;;;;;;;;;;;0.43;100.00;97085.56;1038915;28;19911;-70
2022/03/21 00:27:30;;;;;;;;;;;;;;;0.40;100.00;97083.31;1038919;28;19913;-69
2022/03/21 00:28:01;;;;;;;;;;;;;;;0.37;100.00;97081.06;1041572;28;19917;-70
2022/03/21 00:28:31;;;;;;;;;;;;;;;0.37;100.00;97084.47;1042367;28;19913;-69
2022/03/21 00:29:03;;;;;;;;;;;;;;;0.39;100.00;97081.72;1042779;28;20748;-69
2022/03/21 00:29:33;;;;;;;;;;;;;;;0.33;100.00;97077.19;1038761;28;19932;-69
2022/03/21 00:30:04;;;;;;;;;;;;;;;0.31;100.00;97079.16;1039002;28;19940;-69
2022/03/21 00:30:34;;;;;;;;;;;;;;;0.29;100.00;97091.41;1039117;28;20287;-70
2022/03/21 00:31:05;;;;;;;;;;;;;;;0.28;100.00;97087.22;1034719;28;19972;-70
2022/03/21 00:31:36;;;;;;;;;;;;;;;0.27;100.00;97088.19;1034836;28;19917;-70
2022/03/21 00:32:07;;;;;;;;;;;;;;;0.23;100.00;97093.69;1035200;28;20390;-70
2022/03/21 00:32:37;;;;;;;;;;;;;;;0.27;100.00;97091.59;1034862;28;20008;-70
2022/03/21 00:33:08;;;;;;;;;;;;;;;0.23;100.00;97088.53;1034798;28;20363;-69
2022/03/21 00:33:38;;;;;;;;;;;;;;;0.22;100.00;97092.06;1035102;28;20439;-69
2022/03/21 00:34:08;;;;;;;;;;;;;;;0.21;100.00;97097.41;1030677;28;19992;-69
2022/03/21 00:34:39;;;;;;;;;;;;;;;0.20;100.00;97098.34;1030752;28;19924;-69
2022/03/21 00:35:11;;;;;;;;;;;;;;;0.18;100.00;97090.78;1034768;28;19918;-69
2022/03/21 00:35:44;;;;;;;;;;;;;;;0.18;100.00;97092.56;1030909;28;20060;-69
2022/03/21 00:36:14;;;;;;;;;;;;;;;0.17;100.00;97099.50;1035608;28;19996;-70
2022/03/21 00:36:45;;;;;;;;;;;;;;;0.16;100.00;97091.91;1038687;28;19968;-69
2022/03/21 00:37:15;;;;;;;;;;;;;;;0.17;100.00;97096.13;1038954;28;19910;-70
2022/03/21 00:37:45;;;;;;;;;;;;;;;0.16;100.00;97095.28;1035517;28;20023;-68
2022/03/21 00:38:16;;;;;;;;;;;;;;;0.18;100.00;97095.94;1034772;28;20245;-69
2022/03/21 00:38:47;;;;;;;;;;;;;;;0.22;100.00;97092.06;1035000;28;20070;-70
2022/03/21 00:39:17;;;;;;;;;;;;;;;0.21;100.00;97092.25;1038475;28;19970;-69
2022/03/21 00:39:47;;;;;;;;;;;;;;;0.23;100.00;97096.28;1038768;28;19913;-70
2022/03/21 00:40:18;;;;;;;;;;;;;;;0.27;100.00;97098.50;1039315;28;19920;-69
2022/03/21 00:40:48;;;;;;;;;;;;;;;0.29;100.00;97099.16;1030399;28;20037;-69
2022/03/21 00:41:19;;;;;;;;;;;;;;;0.10;100.00;97067.59;1030769;28;19995;-69
2022/03/21 00:41:50;;;;;;;;;;;;;;;0.31;100.00;97099.81;1026906;28;20009;-69
2022/03/21 00:42:21;;;;;;;;;;;;;;;0.30;100.00;97098.19;1030824;28;19914;-69
2022/03/21 00:42:52;;;;;;;;;;;;;;;0.25;100.00;97090.13;1030613;28;20034;-69
2022/03/21 00:43:22;;;;;;;;;;;;;;;0.25;100.00;97106.44;1028035;28;20030;-70
2022/03/21 00:43:53;;;;;;;;;;;;;;;0.35;100.00;97095.94;1032857;28;20295;-69
2022/03/21 00:44:24;;;;;;;;;;;;;;;0.35;100.00;97101.88;1030350;28;19898;-70
2022/03/21 00:44:56;;;;;;;;;;;;;;;0.35;100.00;97094.16;1034699;28;19980;-70
2022/03/21 00:45:27;;;;;;;;;;;;;;;0.40;100.00;97098.81;1034155;28;19913;-69
2022/03/21 00:45:57;;;;;;;;;;;;;;;0.43;100.00;97095.91;1039342;28;20291;-70
2022/03/21 00:46:27;;;;;;;;;;;;;;;0.41;100.00;97092.69;1037191;28;19941;-69
2022/03/21 00:46:58;;;;;;;;;;;;;;;0.38;100.00;97098.19;1034965;28;19964;-69
2022/03/21 00:47:28;;;;;;;;;;;;;;;0.36;100.00;97098.31;1033391;28;19913;-69
2022/03/21 00:47:58;;;;;;;;;;;;;;;0.44;100.00;97095.75;1026461;28;19910;-70
2022/03/21 00:48:29;;;;;;;;;;;;;;;0.41;100.00;97092.69;1026969;28;19914;-70
2022/03/21 00:48:59;;;;;;;;;;;;;;;0.37;100.00;97093.97;1030079;28;20319;-69
2022/03/21 00:49:29;;;;;;;;;;;;;;;0.36;100.00;97095.75;1026589;28;19913;-69
2022/03/21 00:50:03;;;;;;;;;;;;;;;0.33;100.00;97088.31;1030918;28;19914;-70
2022/03/21 00:50:34;;;;;;;;;;;;;;;0.35;100.00;97093.34;1030616;28;20366;-69
2022/03/21 00:51:04;;;;;;;;;;;;;;;0.30;100.00;97096.41;1032261;28;19966;-70
2022/03/21 00:51:35;;;;;;;;;;;;;;;0.31;100.00;97094.66;1042781;28;19908;-69
2022/03/21 00:52:05;;;;;;;;;;;;;;;0.31;100.00;97099.81;1038944;28;19935;-70
2022/03/21 00:52:55;;;;;;;;;;;;;;;0.33;100.00;97090.09;1043244;28;20520;-69
2022/03/21 00:53:28;;;;;;;;;;;;;;;0.27;100.00;97093.34;1034272;28;19909;-69
2022/03/21 00:53:58;;;;;;;;;;;;;;;0.32;100.00;97088.50;1037922;28;20327;-69
2022/03/21 00:54:28;;;;;;;;;;;;;;;0.31;100.00;97092.06;1034674;28;20237;-69
2022/03/21 00:54:59;;;;;;;;;;;;;;;0.32;100.00;97089.31;1034957;28;20431;-69
2022/03/21 00:55:29;;;;;;;;;;;;;;;0.34;100.00;97089.97;1038878;28;20019;-70
2022/03/21 00:55:59;;;;;;;;;;;;;;;0.37;100.00;97088.81;1038746;28;19913;-69
2022/03/21 00:56:30;;;;;;;;;;;;;;;0.34;100.00;97089.16;1030772;28;19910;-70
2022/03/21 00:57:00;;;;;;;;;;;;;;;0.40;100.00;97091.06;1022526;29;19962;-69
2022/03/21 00:57:31;;;;;;;;;;;;;;;0.40;100.00;97096.22;1026431;28;19965;-69
2022/03/21 00:58:01;;;;;;;;;;;;;;;0.39;100.00;97092.84;1026974;28;19906;-70
2022/03/21 00:58:35;;;;;;;;;;;;;;;0.39;100.00;97089.44;1030759;28;20395;-69
2022/03/21 00:59:08;;;;;;;;;;;;;;;0.34;100.00;97089.16;1035185;28;19913;-71
2022/03/21 00:59:38;;;;;;;;;;;;;;;0.32;100.00;97091.09;1035130;28;19967;-69
2022/03/21 01:00:10;;;;;;;;;;;;;;;0.32;100.00;97096.25;1034680;28;19983;-70
2022/03/21 01:00:40;;;;;;;;;;;;;;;0.36;100.00;97087.19;1027093;28;19910;-69
2022/03/21 01:01:10;;;;;;;;;;;;;;;0.33;100.00;97092.69;1027475;28;19914;-69
2022/03/21 01:01:40;;;;;;;;;;;;;;;0.31;100.00;97089.50;1034427;28;19913;-70
2022/03/21 01:02:12;;;;;;;;;;;;;;;0.29;100.00;97086.25;1031274;28;19914;-69
2022/03/21 01:02:42;;;;;;;;;;;;;;;0.31;100.00;97086.91;1033580;28;19947;-69
2022/03/21 01:03:13;;;;;;;;;;;;;;;0.28;100.00;97082.88;1030547;28;19910;-69
2022/03/21 01:03:43;;;;;;;;;;;;;;;0.27;100.00;97093.34;1027054;28;19914;-70
2022/03/21 01:04:13;;;;;;;;;;;;;;;0.29;100.00;97096.56;1030876;28;20452;-69
2022/03/21 01:04:45;;;;;;;;;;;;;;;0.26;100.00;97097.69;1035149;28;20378;-70
2022/03/21 01:05:15;;;;;;;;;;;;;;;0.25;100.00;97092.72;1033097;28;19918;-71
2022/03/21 01:05:45;;;;;;;;;;;;;;;0.21;100.00;97090.47;1034512;28;19960;-69
2022/03/21 01:06:16;;;;;;;;;;;;;;;0.22;100.00;97092.06;1031153;28;19991;-70
2022/03/21 01:06:46;;;;;;;;;;;;;;;0.20;100.00;97093.19;1034640;28;20032;-70
2022/03/21 01:07:16;;;;;;;;;;;;;;;-0.06;100.00;97058.09;1038905;28;20375;-69
2022/03/21 01:07:47;;;;;;;;;;;;;;;0.18;100.00;97095.94;1038721;28;19951;-69
2022/03/21 01:08:17;;;;;;;;;;;;;;;0.16;100.00;97097.06;1029401;28;19910;-70
2022/03/21 01:08:47;;;;;;;;;;;;;;;0.14;100.00;97088.69;1030912;28;20433;-70
2022/03/21 01:09:18;;;;;;;;;;;;;;;0.15;100.00;97091.09;1029987;28;19910;-70
2022/03/21 01:09:48;;;;;;;;;;;;;;;0.16;100.00;97097.88;1029941;28;20387;-70
2022/03/21 01:10:19;;;;;;;;;;;;;;;0.16;100.00;97103.03;1035019;28;20327;-70
2022/03/21 01:10:49;;;;;;;;;;;;;;;0.14;100.00;97099.03;1034646;28;20012;-69
2022/03/21 01:11:19;;;;;;;;;;;;;;;0.14;100.00;97099.03;1034882;28;19916;-69
2022/03/21 01:11:50;;;;;;;;;;;;;;;0.13;100.00;97098.19;1034602;28;20185;-69
2022/03/21 01:12:20;;;;;;;;;;;;;;;0.15;100.00;97096.28;1030525;28;20232;-70
2022/03/21 01:12:51;;;;;;;;;;;;;;;0.11;100.00;97096.78;1030692;28;19944;-72
2022/03/21 01:13:21;;;;;;;;;;;;;;;0.09;100.00;97096.91;1026059;28;20726;-69
2022/03/21 01:13:51;;;;;;;;;;;;;;;0.06;100.00;97096.44;1033533;28;19968;-69
2022/03/21 01:14:22;;;;;;;;;;;;;;;0.04;100.00;97099.19;1035188;28;19956;-70
2022/03/21 01:14:52;;;;;;;;;;;;;;;0.03;100.00;97097.56;1042712;28;20357;-69
2022/03/21 01:15:23;;;;;;;;;;;;;;;0.01;100.00;97104.69;1036366;28;19944;-69
2022/03/21 01:15:53;;;;;;;;;;;;;;;-0.01;100.00;97096.28;1035014;28;19909;-70
2022/03/21 01:16:23;;;;;;;;;;;;;;;-0.03;100.00;97093.06;1030611;28;19913;-70
2022/03/21 01:16:57;;;;;;;;;;;;;;;-0.03;100.00;97098.22;1031158;28;19914;-70
2022/03/21 01:17:28;;;;;;;;;;;;;;;-0.03;100.00;97093.88;1030643;28;20485;-70
2022/03/21 01:18:01;;;;;;;;;;;;;;;-0.04;100.00;97099.19;1031027;28;19909;-68
2022/03/21 01:18:31;;;;;;;;;;;;;;;-0.04;100.00;97099.97;1032001;28;19921;-70
2022/03/21 01:19:02;;;;;;;;;;;;;;;-0.02;100.00;97098.06;1034478;28;19920;-70
2022/03/21 01:19:32;;;;;;;;;;;;;;;-0.04;100.00;97099.19;1038311;28;19913;-69
2022/03/21 01:20:03;;;;;;;;;;;;;;;-0.03;100.00;97098.22;1030886;28;20338;-71
2022/03/21 01:20:33;;;;;;;;;;;;;;;-0.04;100.00;97096.59;1030574;28;19917;-69
2022/03/21 01:21:04;;;;;;;;;;;;;;;-0.06;100.00;97101.13;1037480;28;19917;-69
2022/03/21 01:21:36;;;;;;;;;;;;;;;-0.07;100.00;97099.50;1030602;28;19950;-69
2022/03/21 01:22:06;;;;;;;;;;;;;;;-0.10;100.00;97092.91;1038556;28;19956;-70
2022/03/21 01:22:39;;;;;;;;;;;;;;;-0.06;100.00;97088.22;1034712;28;19909;-70
2022/03/21 01:23:09;;;;;;;;;;;;;;;-0.07;100.00;97091.75;1034559;28;19913;-70
2022/03/21 01:23:40;;;;;;;;;;;;;;;-0.02;100.00;97089.50;1035127;28;19913;-70
2022/03/21 01:24:10;;;;;;;;;;;;;;;-0.05;100.00;97090.63;1035519;28;19917;-69
2022/03/21 01:24:41;;;;;;;;;;;;;;;-0.04;100.00;97086.28;1042704;28;19913;-69
2022/03/21 01:25:11;;;;;;;;;;;;;;;-0.05;100.00;97092.41;1034813;28;19917;-69
2022/03/21 01:25:41;;;;;;;;;;;;;;;-0.05;100.00;97089.84;1030796;28;19910;-70
2022/03/21 01:26:12;;;;;;;;;;;;;;;-0.08;100.00;97085.00;1030463;28;20006;-69
2022/03/21 01:26:42;;;;;;;;;;;;;;;-0.11;100.00;97086.13;1031125;28;19921;-70
2022/03/21 01:27:12;;;;;;;;;;;;;;;-0.13;100.00;97087.28;1038728;28;20338;-69
2022/03/21 01:27:43;;;;;;;;;;;;;;;-0.16;100.00;97093.56;1042616;28;19928;-70
2022/03/21 01:28:13;;;;;;;;;;;;;;;-0.15;100.00;97086.63;1043038;28;19968;-69
2022/03/21 01:28:44;;;;;;;;;;;;;;;-0.17;100.00;97085.97;1037519;28;19997;-69
2022/03/21 01:29:17;;;;;;;;;;;;;;;-0.14;100.00;97089.03;1038618;28;19935;-71
2022/03/21 01:29:48;;;;;;;;;;;;;;;-0.13;100.00;97088.06;1038661;28;19913;-68
2022/03/21 01:30:18;;;;;;;;;;;;;;;-0.12;100.00;97092.25;1035647;28;19920;-69
2022/03/21 01:30:48;;;;;;;;;;;;;;;-0.13;100.00;97093.22;1026903;28;19918;-69
2022/03/21 01:31:18;;;;;;;;;;;;;;;-0.11;100.00;97090.47;1026324;28;19921;-69
2022/03/21 01:31:49;;;;;;;;;;;;;;;-0.10;100.00;97092.09;1026778;28;19910;-69
2022/03/21 01:32:20;;;;;;;;;;;;;;;-0.11;100.00;97095.63;1031154;28;20299;-69
2022/03/21 01:32:50;;;;;;;;;;;;;;;-0.31;100.00;97064.19;1034320;28;20303;-70
2022/03/21 01:33:20;;;;;;;;;;;;;;;-0.15;100.00;97094.34;1030957;28;19914;-69
2022/03/21 01:33:53;;;;;;;;;;;;;;;-0.19;100.00;97096.44;1030554;28;19976;-69
2022/03/21 01:34:23;;;;;;;;;;;;;;;-0.16;100.00;97097.91;1031097;28;20567;-69
2022/03/21 01:34:54;;;;;;;;;;;;;;;-0.19;100.00;97093.06;1027415;28;19922;-69
2022/03/21 01:35:24;;;;;;;;;;;;;;;-0.19;100.00;97093.88;1027465;28;19948;-70
2022/03/21 01:35:54;;;;;;;;;;;;;;;-0.18;100.00;97094.69;1031209;28;20289;-68
2022/03/21 01:36:25;;;;;;;;;;;;;;;-0.18;100.00;97094.69;1031003;28;19945;-71
2022/03/21 01:36:55;;;;;;;;;;;;;;;-0.19;100.00;97093.06;1034714;28;19913;-69
2022/03/21 01:37:26;;;;;;;;;;;;;;;-0.20;100.00;97099.19;1031022;28;20383;-70
2022/03/21 01:37:56;;;;;;;;;;;;;;;-0.22;100.00;97095.97;1030350;28;20533;-69
2022/03/21 01:38:26;;;;;;;;;;;;;;;-0.20;100.00;97091.44;1034680;28;19952;-69
2022/03/21 01:38:56;;;;;;;;;;;;;;;-0.22;100.00;97094.19;1030166;28;19914;-67
2022/03/21 01:39:27;;;;;;;;;;;;;;;-0.28;100.00;97094.81;1030439;28;19914;-69
2022/03/21 01:39:57;;;;;;;;;;;;;;;-0.32;100.00;97094.34;1038559;28;19964;-69
2022/03/21 01:40:27;;;;;;;;;;;;;;;-0.35;100.00;97096.44;1035067;28;20625;-69
2022/03/21 01:40:58;;;;;;;;;;;;;;;-0.40;100.00;97099.50;1038576;28;19914;-70
2022/03/21 01:41:29;;;;;;;;;;;;;;;-0.42;100.00;97098.06;1034684;28;19918;-69
2022/03/21 01:41:59;;;;;;;;;;;;;;;-0.46;100.00;97091.59;1035187;28;19920;-69
2022/03/21 01:42:29;;;;;;;;;;;;;;;-0.50;100.00;97106.59;1034484;28;20004;-69
2022/03/21 01:43:00;;;;;;;;;;;;;;;-0.54;100.00;97105.25;1033351;28;20418;-70
2022/03/21 01:43:30;;;;;;;;;;;;;;;-0.58;100.00;97109.13;1026392;28;19914;-69
2022/03/21 01:44:02;;;;;;;;;;;;;;;-0.60;100.00;97105.94;1030585;28;19921;-69
2022/03/21 01:44:32;;;;;;;;;;;;;;;-0.62;100.00;97105.25;1031112;28;20379;-69
2022/03/21 01:45:02;;;;;;;;;;;;;;;-0.65;100.00;97103.00;1034726;28;19945;-69
2022/03/21 01:45:33;;;;;;;;;;;;;;;-0.66;100.00;97106.56;1037871;28;20024;-68
2022/03/21 01:46:03;;;;;;;;;;;;;;;-0.69;100.00;97112.03;1034620;28;20371;-69
2022/03/21 01:46:33;;;;;;;;;;;;;;;-0.75;100.00;97109.09;1031984;28;19909;-70
2022/03/21 01:47:04;;;;;;;;;;;;;;;-0.79;100.00;97105.22;1030850;28;19914;-69
2022/03/21 01:47:34;;;;;;;;;;;;;;;-0.81;100.00;97114.06;1030454;28;19914;-70
2022/03/21 01:48:08;;;;;;;;;;;;;;;-0.84;100.00;97110.06;1038393;28;19909;-69
2022/03/21 01:48:38;;;;;;;;;;;;;;;-0.86;100.00;97111.16;1039154;28;20410;-69
2022/03/21 01:49:08;;;;;;;;;;;;;;;-0.87;100.00;97112.94;1038252;28;19913;-68
2022/03/21 01:49:40;;;;;;;;;;;;;;;-0.89;100.00;97111.47;1038952;28;20328;-69
2022/03/21 01:50:10;;;;;;;;;;;;;;;-0.92;100.00;97107.44;1042997;28;20023;-69
2022/03/21 01:50:41;;;;;;;;;;;;;;;-0.92;100.00;97107.44;1038778;28;20531;-69
2022/03/21 01:51:12;;;;;;;;;;;;;;;-0.95;100.00;97108.56;1039189;28;20572;-69
2022/03/21 01:51:45;;;;;;;;;;;;;;;-0.90;100.00;97112.44;1038477;28;20414;-69
2022/03/21 01:52:15;;;;;;;;;;;;;;;-0.95;100.00;97108.56;1034581;28;19963;-69
2022/03/21 01:52:45;;;;;;;;;;;;;;;-0.97;100.00;97112.28;1035240;28;20358;-69
2022/03/21 01:55:43;;;;;;;;;;;;;;;-0.97;100.00;97101.97;1036218;28;20469;-69
2022/03/21 01:56:14;;;;;;;;;;;;;;;-0.98;100.00;97106.28;1039365;28;19921;-70
2022/03/21 01:56:44;;;;;;;;;;;;;;;-0.98;100.00;97108.06;1039578;28;19941;-70
2022/03/21 01:57:15;;;;;;;;;;;;;;;-0.96;100.00;97106.16;1035167;28;19940;-70
2022/03/21 01:57:45;;;;;;;;;;;;;;;-0.99;100.00;97106.44;1031110;28;19925;-71
2022/03/21 01:58:16;;;;;;;;;;;;;;;-0.98;100.00;97097.75;1035226;28;20383;-69
2022/03/21 01:58:46;;;;;;;;;;;;;;;-0.98;100.00;97105.47;1027368;28;19921;-70
2022/03/21 01:59:17;;;;;;;;;;;;;;;-0.95;100.00;97102.59;1026822;28;19969;-70
2022/03/21 01:59:47;;;;;;;;;;;;;;;-0.95;100.00;97103.41;1031237;28;20313;-69
2022/03/21 02:00:18;;;;;;;;;;;;;;;-0.97;100.00;97097.63;1027283;28;20263;-69
2022/03/21 02:00:48;;;;;;;;;;;;;;;-0.96;100.00;97106.16;1027672;28;19926;-70
2022/03/21 02:01:19;;;;;;;;;;;;;;;-0.95;100.00;97097.44;1031662;28;20003;-70
2022/03/21 02:01:49;;;;;;;;;;;;;;;-0.92;100.00;97107.44;1037363;28;19918;-70
2022/03/21 02:02:19;;;;;;;;;;;;;;;-0.87;100.00;97105.22;1039911;28;19929;-69
2022/03/21 02:02:50;;;;;;;;;;;;;;;-0.83;100.00;97106.50;1034889;28;19941;-69
2022/03/21 02:03:21;;;;;;;;;;;;;;;-0.82;100.00;97105.53;1034741;28;19917;-69
2022/03/21 02:03:51;;;;;;;;;;;;;;;-0.77;100.00;97105.88;1031659;28;20052;-69
2022/03/21 02:04:22;;;;;;;;;;;;;;;-0.81;100.00;97104.56;1023826;28;20331;-69
2022/03/21 02:04:52;;;;;;;;;;;;;;;-0.77;100.00;97103.31;1023747;28;19966;-70
2022/03/21 02:05:22;;;;;;;;;;;;;;;-0.76;100.00;97097.19;1024068;28;19915;-69
2022/03/21 02:05:53;;;;;;;;;;;;;;;-0.72;100.00;97097.66;1027241;28;19969;-70
2022/03/21 02:06:24;;;;;;;;;;;;;;;-0.68;100.00;97098.16;1035788;28;19930;-70
2022/03/21 02:06:54;;;;;;;;;;;;;;;-0.66;100.00;97106.56;1033335;28;20292;-70
2022/03/21 02:07:25;;;;;;;;;;;;;;;-0.74;100.00;97094.44;1031383;28;19924;-69
2022/03/21 02:07:55;;;;;;;;;;;;;;;-0.75;100.00;97097.97;1031710;28;19922;-70
2022/03/21 02:08:25;;;;;;;;;;;;;;;-0.76;100.00;97097.19;1027568;28;20012;-70
2022/03/21 02:08:56;;;;;;;;;;;;;;;-0.80;100.00;97095.09;1031375;28;19928;-69
2022/03/21 02:09:27;;;;;;;;;;;;;;;-0.79;100.00;97101.84;1035314;28;19955;-70
2022/03/21 02:09:57;;;;;;;;;;;;;;;-0.80;100.00;97095.09;1031661;28;19924;-69
2022/03/21 02:10:28;;;;;;;;;;;;;;;-0.81;100.00;97094.25;1031385;28;19921;-70
2022/03/21 02:11:00;;;;;;;;;;;;;;;-0.85;100.00;97095.53;1031704;28;19997;-70
2022/03/21 02:11:33;;;;;;;;;;;;;;;-0.87;100.00;97096.66;1027652;28;19957;-69
2022/03/21 02:12:04;;;;;;;;;;;;;;;-0.84;100.00;97093.75;1028098;28;19944;-69
2022/03/21 02:12:34;;;;;;;;;;;;;;;-0.87;100.00;97094.06;1031950;28;20298;-70
2022/03/21 02:13:05;;;;;;;;;;;;;;;-0.92;100.00;97094.56;1032869;28;20029;-70
2022/03/21 02:13:35;;;;;;;;;;;;;;;-0.96;100.00;97098.41;1039658;28;19957;-69
2022/03/21 02:14:06;;;;;;;;;;;;;;;-0.97;100.00;97100.19;1039519;28;19972;-71
2022/03/21 02:14:39;;;;;;;;;;;;;;;-0.98;100.00;97093.41;1039848;28;19913;-70
2022/03/21 02:15:09;;;;;;;;;;;;;;;-1.00;100.00;97094.53;1035706;28;19922;-69
2022/03/21 02:15:40;;;;;;;;;;;;;;;-1.04;100.00;97093.22;1035434;28;20137;-71
2022/03/21 02:16:10;;;;;;;;;;;;;;;-1.05;100.00;97092.41;1031831;28;19940;-69
2022/03/21 02:16:40;;;;;;;;;;;;;;;-1.09;100.00;97098.03;1031416;28;20410;-69
2022/03/21 02:17:13;;;;;;;;;;;;;;;-1.11;100.00;97095.59;1027586;28;19957;-70
2022/03/21 02:17:43;;;;;;;;;;;;;;;-1.12;100.00;97096.59;1035674;28;19913;-69
2022/03/21 02:18:14;;;;;;;;;;;;;;;-1.13;100.00;97094.97;1035386;28;20345;-70
2022/03/21 02:18:44;;;;;;;;;;;;;;;-1.17;100.00;97098.84;1031569;28;19918;-70
2022/03/21 02:19:21;;;;;;;;;;;;;;;-1.14;100.00;97103.69;1030469;28;20334;-70
2022/03/21 02:19:52;;;;;;;;;;;;;;;-1.19;100.00;97100.75;1027896;28;20365;-70
2022/03/21 02:20:22;;;;;;;;;;;;;;;-1.22;100.00;97101.84;1033099;28;19925;-70
2022/03/21 02:20:53;;;;;;;;;;;;;;;-1.19;100.00;97096.41;1035075;28;19921;-70
2022/03/21 02:21:24;;;;;;;;;;;;;;;-1.22;100.00;97101.84;1031961;28;19914;-69
2022/03/21 02:21:57;;;;;;;;;;;;;;;-1.22;100.00;97096.69;1035425;28;19921;-70
2022/03/21 02:22:39;;;;;;;;;;;;;;;-1.23;100.00;97095.09;1027147;28;19931;-70
2022/03/21 02:23:21;;;;;;;;;;;;;;;-1.25;100.00;97102.16;1029352;28;19965;-70
2022/03/21 02:23:53;;;;;;;;;;;;;;;-1.39;100.00;97065.91;1035003;28;20189;-70
2022/03/21 02:24:41;;;;;;;;;;;;;;;-1.17;100.00;97098.00;1037812;28;20007;-69
2022/03/21 02:25:15;;;;;;;;;;;;;;;-1.16;100.00;97097.06;1039361;28;20442;-70
2022/03/21 02:25:45;;;;;;;;;;;;;;;-1.20;100.00;97099.94;1031329;28;20376;-70
2022/03/21 02:26:15;;;;;;;;;;;;;;;-1.24;100.00;97097.81;1030107;28;19968;-69
2022/03/21 02:26:46;;;;;;;;;;;;;;;-1.26;100.00;97100.56;1031879;28;19964;-70
2022/03/21 02:27:16;;;;;;;;;;;;;;;-1.28;100.00;97101.66;1035419;28;19933;-70
2022/03/21 02:27:47;;;;;;;;;;;;;;;-1.30;100.00;97104.41;1043600;28;19921;-70
2022/03/21 02:28:17;;;;;;;;;;;;;;;-1.34;100.00;97108.25;1039564;28;19921;-69
2022/03/21 02:28:48;;;;;;;;;;;;;;;-1.36;100.00;97097.28;1039455;28;19917;-70
2022/03/21 02:29:18;;;;;;;;;;;;;;;-1.36;100.00;97105.00;1030499;28;19949;-69
2022/03/21 02:29:48;;;;;;;;;;;;;;;-1.39;100.00;97102.75;1027535;28;19918;-69
2022/03/21 02:30:19;;;;;;;;;;;;;;;-1.42;100.00;97100.47;1027446;28;19921;-70
2022/03/21 02:30:49;;;;;;;;;;;;;;;-1.43;100.00;97094.53;1027587;28;19919;-70
2022/03/21 02:31:22;;;;;;;;;;;;;;;-1.44;100.00;97098.06;1031098;28;20377;-69
2022/03/21 02:31:55;;;;;;;;;;;;;;;-1.47;100.00;97095.78;1031751;28;20394;-70
2022/03/21 02:32:26;;;;;;;;;;;;;;;-1.42;100.00;97096.13;1027490;28;19924;-69
2022/03/21 02:33:00;;;;;;;;;;;;;;;-1.44;100.00;97094.69;1033012;28;19917;-69
2022/03/21 02:33:33;;;;;;;;;;;;;;;-1.42;100.00;97093.56;1027394;28;19913;-69
2022/03/21 02:34:03;;;;;;;;;;;;;;;-1.37;100.00;97093.13;1028234;28;19914;-70
2022/03/21 02:34:40;;;;;;;;;;;;;;;-1.38;100.00;97088.91;1031803;28;20227;-70
2022/03/21 02:35:10;;;;;;;;;;;;;;;-1.42;100.00;97090.97;1038181;28;19933;-71
2022/03/21 02:35:44;;;;;;;;;;;;;;;-1.39;100.00;97089.06;1035418;28;19909;-69
2022/03/21 02:36:17;;;;;;;;;;;;;;;-1.44;100.00;97099.84;1032838;28;19972;-69
2022/03/21 02:36:48;;;;;;;;;;;;;;;-1.46;100.00;97094.03;1035302;28;20380;-69
2022/03/21 02:37:18;;;;;;;;;;;;;;;-1.41;100.00;97091.78;1027235;28;19917;-68
2022/03/21 02:37:51;;;;;;;;;;;;;;;-1.43;100.00;97091.94;1026143;28;19922;-69
2022/03/21 02:38:21;;;;;;;;;;;;;;;-1.43;100.00;97094.53;1024604;28;20397;-69
2022/03/21 02:38:52;;;;;;;;;;;;;;;-1.37;100.00;97098.25;1028000;28;19921;-69
2022/03/21 02:39:23;;;;;;;;;;;;;;;-1.36;100.00;97093.91;1030689;28;19920;-69
2022/03/21 02:39:54;;;;;;;;;;;;;;;-1.36;100.00;97099.06;1031259;28;19917;-69
2022/03/21 02:40:24;;;;;;;;;;;;;;;-1.34;100.00;97099.69;1031850;28;19917;-70
2022/03/21 02:40:55;;;;;;;;;;;;;;;-1.33;100.00;97099.56;1031596;28;20494;-70
2022/03/21 02:41:25;;;;;;;;;;;;;;;-1.33;100.00;97099.56;1032234;28;20261;-71
2022/03/21 02:41:55;;;;;;;;;;;;;;;-1.35;100.00;97093.75;1034617;28;19918;-69
2022/03/21 02:42:26;;;;;;;;;;;;;;;-1.40;100.00;97103.72;1033911;28;19949;-69